Time;durP1;ratioP1;P1;durP2;ratioP2;P2;SDS_P1;SDS_P2;PMS_P1;PMS_P2;Temp;Humidity;BMP_temperature;BMP_pressure;BME280_temperature;BME280_humidity;BME280_pressure;Samples;Min_cycle;Max_cycle;Signal;HPM_P1;HPM_P2
2022/12/06 00:01:03;;;;;;;7.63;5.97;;;;;;;;;;5085084;28;20181;-78
2022/12/06 00:03:29;;;;;;;6.37;5.57;;;;;;;;;;5094972;28;20269;-77
2022/12/06 00:05:59;;;;;;;6.50;5.27;;;;;;;;;;5079616;28;20270;-77
2022/12/06 00:08:26;;;;;;;8.50;5.67;;;;;;;;;;5089254;28;20209;-77
2022/12/06 00:10:52;;;;;;;6.73;5.70;;;;;;;;;;5077478;28;20311;-78
2022/12/06 00:13:18;;;;;;;8.07;6.47;;;;;;;;;;5076777;28;20656;-77
2022/12/06 00:15:44;;;;;;;6.77;5.53;;;;;;;;;;5081293;28;20234;-78
2022/12/06 00:18:10;;;;;;;7.50;5.60;;;;;;;;;;5075862;28;20197;-77
2022/12/06 00:20:37;;;;;;;7.53;6.10;;;;;;;;;;5077428;28;20867;-79
2022/12/06 00:23:03;;;;;;;7.83;6.77;;;;;;;;;;5056459;28;20200;-76
2022/12/06 00:25:29;;;;;;;8.23;6.60;;;;;;;;;;5082086;28;20184;-77
2022/12/06 00:27:56;;;;;;;7.60;6.00;;;;;;;;;;5083108;28;20345;-76
2022/12/06 00:30:22;;;;;;;7.03;6.20;;;;;;;;;;5066113;28;20702;-77
2022/12/06 00:32:48;;;;;;;9.30;6.43;;;;;;;;;;5058397;28;20216;-76
2022/12/06 00:35:14;;;;;;;6.83;5.80;;;;;;;;;;5072792;28;20188;-76
2022/12/06 00:37:40;;;;;;;9.17;6.67;;;;;;;;;;5075323;28;20180;-77
2022/12/06 00:40:07;;;;;;;9.00;6.63;;;;;;;;;;5062602;28;20185;-77
2022/12/06 00:42:33;;;;;;;7.97;6.27;;;;;;;;;;5091435;28;20264;-77
2022/12/06 00:44:59;;;;;;;7.43;6.03;;;;;;;;;;5073684;28;20188;-77
2022/12/06 00:47:25;;;;;;;7.23;6.23;;;;;;;;;;5072562;28;20234;-77
2022/12/06 00:49:52;;;;;;;6.80;6.10;;;;;;;;;;5067688;28;20785;-77
2022/12/06 00:52:18;;;;;;;6.10;5.50;;;;;;;;;;5055672;28;20636;-77
2022/12/06 00:54:44;;;;;;;6.77;5.77;;;;;;;;;;5081389;28;20193;-77
2022/12/06 00:57:10;;;;;;;6.90;5.80;;;;;;;;;;5071200;28;20745;-77
2022/12/06 00:59:36;;;;;;;7.33;6.40;;;;;;;;;;5078729;28;20278;-77
2022/12/06 01:02:03;;;;;;;7.30;6.33;;;;;;;;;;5073494;28;20211;-77
2022/12/06 01:04:29;;;;;;;8.07;6.67;;;;;;;;;;5075620;28;20307;-77
2022/12/06 01:06:55;;;;;;;7.47;6.20;;;;;;;;;;5079249;28;20260;-77
2022/12/06 01:09:21;;;;;;;7.77;6.33;;;;;;;;;;5093284;28;20299;-76
2022/12/06 01:11:47;;;;;;;8.00;6.90;;;;;;;;;;5087960;28;20646;-77
2022/12/06 01:14:13;;;;;;;7.57;6.07;;;;;;;;;;5084011;28;20181;-77
2022/12/06 01:16:40;;;;;;;9.93;7.00;;;;;;;;;;5077901;28;20908;-77
2022/12/06 01:19:06;;;;;;;7.60;6.80;;;;;;;;;;5062735;28;20207;-77
2022/12/06 01:21:32;;;;;;;9.90;7.00;;;;;;;;;;5079851;28;20173;-77
2022/12/06 01:23:58;;;;;;;9.73;7.23;;;;;;;;;;5074589;28;20185;-77
2022/12/06 01:26:29;;;;;;;9.37;6.70;;;;;;;;;;5059029;28;20203;-77
2022/12/06 01:28:56;;;;;;;8.40;6.57;;;;;;;;;;5084155;28;20220;-76
2022/12/06 01:31:22;;;;;;;8.90;6.43;;;;;;;;;;5068880;28;20295;-76
2022/12/06 01:33:49;;;;;;;12.63;7.57;;;;;;;;;;5056415;28;20188;-77
2022/12/06 01:36:20;;;;;;;11.83;7.73;;;;;;;;;;5074423;28;20283;-77
2022/12/06 01:38:50;;;;;;;9.90;7.37;;;;;;;;;;5074388;28;20231;-77
2022/12/06 01:41:17;;;;;;;9.77;7.23;;;;;;;;;;5088189;28;20249;-76
2022/12/06 01:43:43;;;;;;;28.57;12.13;;;;;;;;;;5082997;28;20714;-76
2022/12/06 01:46:19;;;;;;;13.70;8.23;;;;;;;;;;5071660;28;20662;-77
2022/12/06 01:48:45;;;;;;;11.07;8.23;;;;;;;;;;5085155;28;20264;-76
2022/12/06 01:51:13;;;;;;;11.47;7.20;;;;;;;;;;5083325;28;20193;-77
2022/12/06 01:53:39;;;;;;;11.23;7.30;;;;;;;;;;5083713;28;20181;-77
2022/12/06 01:56:06;;;;;;;9.50;7.50;;;;;;;;;;5043464;28;20574;-76
2022/12/06 01:58:36;;;;;;;10.20;7.00;;;;;;;;;;5081208;28;20205;-77
2022/12/06 02:01:02;;;;;;;11.40;7.97;;;;;;;;;;5072880;28;20198;-77
2022/12/06 02:03:30;;;;;;;12.20;7.37;;;;;;;;;;5055570;28;20594;-77
2022/12/06 02:05:56;;;;;;;10.33;7.43;;;;;;;;;;5075259;28;20291;-77
2022/12/06 02:08:23;;;;;;;8.50;6.70;;;;;;;;;;5082449;28;20204;-77
2022/12/06 02:10:49;;;;;;;9.93;6.77;;;;;;;;;;5069536;28;20201;-77
2022/12/06 02:13:16;;;;;;;8.57;6.87;;;;;;;;;;5045083;28;20761;-77
2022/12/06 02:15:42;;;;;;;8.10;6.53;;;;;;;;;;5078443;28;20177;-77
2022/12/06 02:18:15;;;;;;;7.97;6.10;;;;;;;;;;5071447;28;20205;-77
2022/12/06 02:20:49;;;;;;;11.17;7.40;;;;;;;;;;5084986;28;20193;-77
2022/12/06 02:23:30;;;;;;;17.43;9.90;;;;;;;;;;5084883;28;20188;-77
2022/12/06 02:26:16;;;;;;;10.27;7.93;;;;;;;;;;5065381;28;20194;-77
2022/12/06 02:29:01;;;;;;;19.23;10.33;;;;;;;;;;5085858;28;20219;-77
2022/12/06 02:31:36;;;;;;;12.33;8.47;;;;;;;;;;5079146;28;20204;-77
2022/12/06 02:34:25;;;;;;;21.60;11.00;;;;;;;;;;5102515;28;20635;-77
2022/12/06 02:37:09;;;;;;;13.57;8.70;;;;;;;;;;5057870;28;20195;-77
2022/12/06 02:39:35;;;;;;;16.87;9.50;;;;;;;;;;5091195;28;20231;-77
2022/12/06 02:42:17;;;;;;;14.23;8.93;;;;;;;;;;5079966;28;20184;-77
2022/12/06 02:44:54;;;;;;;11.87;8.20;;;;;;;;;;5075656;28;20273;-77
2022/12/06 02:47:23;;;;;;;15.73;8.43;;;;;;;;;;5076608;28;20257;-77
2022/12/06 02:49:53;;;;;;;16.47;9.23;;;;;;;;;;5074358;28;20265;-77
2022/12/06 02:52:23;;;;;;;17.70;9.47;;;;;;;;;;5079935;28;20584;-77
2022/12/06 02:54:50;;;;;;;10.20;7.40;;;;;;;;;;5075442;28;20181;-77
2022/12/06 02:57:17;;;;;;;21.57;11.07;;;;;;;;;;5069605;28;20578;-77
2022/12/06 02:59:51;;;;;;;12.90;8.60;;;;;;;;;;5074658;28;20289;-77
2022/12/06 03:02:18;;;;;;;14.33;8.87;;;;;;;;;;5067465;28;20184;-77
2022/12/06 03:04:48;;;;;;;19.00;10.33;;;;;;;;;;5088481;28;20186;-77
2022/12/06 03:07:14;;;;;;;19.77;10.93;;;;;;;;;;5091862;28;20209;-77
2022/12/06 03:10:08;;;;;;;17.50;10.10;;;;;;;;;;5076404;28;20232;-76
2022/12/06 03:12:40;;;;;;;17.37;9.60;;;;;;;;;;5090173;28;20173;-76
2022/12/06 03:15:19;;;;;;;21.00;11.20;;;;;;;;;;5078672;28;20318;-77
2022/12/06 03:17:51;;;;;;;18.30;10.37;;;;;;;;;;5080771;28;20196;-77
2022/12/06 03:20:21;;;;;;;9.87;7.00;;;;;;;;;;5077879;28;20184;-77
2022/12/06 03:22:50;;;;;;;8.20;6.83;;;;;;;;;;5073737;28;20188;-76
2022/12/06 03:25:17;;;;;;;9.60;6.47;;;;;;;;;;5077298;28;20297;-77
2022/12/06 03:27:44;;;;;;;9.10;7.17;;;;;;;;;;5074557;28;20226;-76
2022/12/06 03:30:13;;;;;;;8.90;6.33;;;;;;;;;;5075441;28;20208;-77
2022/12/06 03:32:41;;;;;;;8.50;6.37;;;;;;;;;;5072806;28;21451;-76
2022/12/06 03:35:09;;;;;;;7.63;6.37;;;;;;;;;;5079620;28;20679;-77
2022/12/06 03:37:37;;;;;;;9.37;6.33;;;;;;;;;;5079260;28;20188;-77
2022/12/06 03:40:08;;;;;;;8.13;6.50;;;;;;;;;;5086030;28;20179;-76
2022/12/06 03:42:35;;;;;;;14.48;9.02;;;;;;;;;;5068998;28;20424;-77
2022/12/06 03:45:01;;;;;;;19.10;9.97;;;;;;;;;;5065532;28;20227;-77
2022/12/06 03:47:33;;;;;;;10.23;7.43;;;;;;;;;;5080211;28;20181;-77
2022/12/06 03:50:04;;;;;;;8.97;6.87;;;;;;;;;;5088312;28;20524;-77
2022/12/06 03:52:30;;;;;;;8.23;5.90;;;;;;;;;;5095339;28;20185;-77
2022/12/06 03:54:56;;;;;;;8.10;6.23;;;;;;;;;;5091446;28;20200;-77
2022/12/06 03:57:22;;;;;;;8.30;6.17;;;;;;;;;;5103663;28;20172;-77
2022/12/06 03:59:49;;;;;;;8.60;6.33;;;;;;;;;;5077512;28;20208;-77
2022/12/06 04:02:15;;;;;;;6.90;5.70;;;;;;;;;;5094478;28;20199;-77
2022/12/06 04:04:44;;;;;;;6.90;5.93;;;;;;;;;;5090965;28;20208;-77
2022/12/06 04:07:11;;;;;;;8.03;5.93;;;;;;;;;;5069038;28;20188;-77
2022/12/06 04:09:54;;;;;;;9.03;6.13;;;;;;;;;;5091633;28;20201;-77
2022/12/06 04:15:07;;;;;;;8.20;6.60;;;;;;;;;;5084825;28;20177;-77
2022/12/06 04:20:18;;;;;;;9.80;6.53;;;;;;;;;;5085758;28;20254;-77
2022/12/06 04:23:03;;;;;;;9.03;6.47;;;;;;;;;;5090052;28;20196;-77
2022/12/06 04:25:36;;;;;;;10.93;7.30;;;;;;;;;;5086133;28;20648;-77
2022/12/06 04:39:02;;;;;;;13.13;7.10;;;;;;;;;;5089165;28;20212;-77
2022/12/06 04:44:13;;;;;;;8.40;6.93;;;;;;;;;;5067706;28;20189;-76
2022/12/06 04:46:39;;;;;;;7.93;7.07;;;;;;;;;;5074239;28;20181;-76
2022/12/06 04:49:05;;;;;;;9.20;7.00;;;;;;;;;;5068351;28;20211;-76
2022/12/06 04:51:32;;;;;;;9.30;6.87;;;;;;;;;;5072476;28;20212;-77
2022/12/06 04:53:58;;;;;;;10.03;7.33;;;;;;;;;;5049285;28;20184;-77
2022/12/06 04:56:24;;;;;;;8.40;7.07;;;;;;;;;;5079805;28;20632;-77
2022/12/06 04:58:50;;;;;;;7.93;6.20;;;;;;;;;;5059368;28;20255;-77
2022/12/06 05:01:17;;;;;;;9.70;6.83;;;;;;;;;;5077923;28;20234;-78
2022/12/06 05:03:43;;;;;;;7.80;6.30;;;;;;;;;;5081478;28;20177;-77
2022/12/06 05:06:09;;;;;;;6.83;6.13;;;;;;;;;;5075585;28;20196;-77
2022/12/06 05:08:36;;;;;;;8.93;7.07;;;;;;;;;;5064938;28;20205;-77
2022/12/06 05:11:02;;;;;;;9.50;6.60;;;;;;;;;;5075787;28;20213;-77
2022/12/06 05:13:28;;;;;;;8.80;6.10;;;;;;;;;;5083723;28;20177;-77
2022/12/06 05:15:55;;;;;;;7.80;6.20;;;;;;;;;;5081246;28;20242;-77
2022/12/06 05:18:22;;;;;;;9.30;5.50;;;;;;;;;;5078260;28;20225;-77
2022/12/06 05:20:48;;;;;;;8.63;6.43;;;;;;;;;;5075445;28;20184;-77
2022/12/06 05:23:14;;;;;;;9.73;6.37;;;;;;;;;;5068017;28;20682;-78
2022/12/06 05:25:40;;;;;;;9.37;6.30;;;;;;;;;;5084983;28;20195;-78
2022/12/06 05:28:07;;;;;;;7.97;6.20;;;;;;;;;;5073043;28;20213;-78
2022/12/06 05:30:34;;;;;;;7.77;6.47;;;;;;;;;;5077939;28;20196;-77
2022/12/06 05:33:00;;;;;;;7.10;6.35;;;;;;;;;;5070913;28;20457;-78
2022/12/06 05:35:26;;;;;;;7.57;6.23;;;;;;;;;;5077642;28;20541;-78
2022/12/06 05:37:52;;;;;;;6.33;5.63;;;;;;;;;;5079398;28;20216;-77
2022/12/06 05:40:18;;;;;;;8.70;6.93;;;;;;;;;;5087610;28;20190;-78
2022/12/06 05:42:44;;;;;;;7.97;6.50;;;;;;;;;;5073893;28;20197;-78
2022/12/06 05:45:11;;;;;;;7.60;6.27;;;;;;;;;;5063704;28;20587;-78
2022/12/06 05:47:38;;;;;;;8.03;6.67;;;;;;;;;;5075130;28;20192;-77
2022/12/06 05:50:05;;;;;;;9.00;6.10;;;;;;;;;;5079700;28;20204;-75
2022/12/06 05:52:31;;;;;;;9.80;7.87;;;;;;;;;;5079918;28;20182;-75
2022/12/06 05:54:57;;;;;;;8.80;6.20;;;;;;;;;;5077526;28;20184;-76
2022/12/06 05:57:23;;;;;;;7.60;5.90;;;;;;;;;;5073005;28;21933;-77
2022/12/06 05:59:50;;;;;;;7.00;5.77;;;;;;;;;;5060157;28;20201;-76
2022/12/06 06:02:16;;;;;;;7.27;5.47;;;;;;;;;;5065723;28;20259;-76
2022/12/06 06:04:42;;;;;;;7.00;5.90;;;;;;;;;;5072089;28;20278;-76
2022/12/06 06:07:08;;;;;;;7.70;5.90;;;;;;;;;;5082980;28;20871;-76
2022/12/06 06:09:34;;;;;;;8.73;5.87;;;;;;;;;;5078601;28;20205;-76
2022/12/06 06:12:00;;;;;;;6.88;5.47;;;;;;;;;;5092459;28;20512;-76
2022/12/06 06:14:27;;;;;;;6.93;5.87;;;;;;;;;;5077731;28;20259;-76
2022/12/06 06:16:53;;;;;;;6.63;5.70;;;;;;;;;;5093780;28;20691;-76
2022/12/06 06:19:22;;;;;;;7.63;5.60;;;;;;;;;;5065159;28;20201;-76
2022/12/06 06:21:48;;;;;;;6.65;5.93;;;;;;;;;;5079529;28;20413;-76
2022/12/06 06:24:14;;;;;;;6.20;5.43;;;;;;;;;;5079620;28;20177;-76
2022/12/06 06:26:40;;;;;;;6.27;5.13;;;;;;;;;;5067857;28;20208;-76
2022/12/06 06:29:07;;;;;;;7.00;5.70;;;;;;;;;;5055275;28;20258;-76
2022/12/06 06:31:34;;;;;;;7.40;5.23;;;;;;;;;;5082968;28;20295;-77
2022/12/06 06:34:00;;;;;;;6.70;5.10;;;;;;;;;;5082202;28;20235;-77
2022/12/06 06:36:26;;;;;;;9.00;5.43;;;;;;;;;;5069917;28;20203;-76
2022/12/06 06:38:52;;;;;;;7.10;5.40;;;;;;;;;;5081850;28;22003;-76
2022/12/06 06:41:18;;;;;;;6.60;4.77;;;;;;;;;;5065295;28;20820;-76
2022/12/06 06:43:44;;;;;;;7.80;5.17;;;;;;;;;;5076621;28;20223;-77
2022/12/06 06:46:10;;;;;;;6.67;4.60;;;;;;;;;;5079382;28;20227;-75
2022/12/06 06:48:38;;;;;;;7.77;5.17;;;;;;;;;;5096536;28;20208;-78
2022/12/06 06:51:05;;;;;;;5.90;4.60;;;;;;;;;;5087325;28;20244;-78
2022/12/06 06:53:31;;;;;;;5.93;4.70;;;;;;;;;;5085208;28;20207;-75
2022/12/06 06:55:58;;;;;;;6.57;4.47;;;;;;;;;;5067192;28;20660;-79
2022/12/06 06:58:24;;;;;;;7.33;4.80;;;;;;;;;;5089944;28;20224;-80
2022/12/06 07:00:54;;;;;;;6.13;4.50;;;;;;;;;;5066156;28;21286;-82
2022/12/06 07:03:21;;;;;;;5.93;4.90;;;;;;;;;;5067735;28;20454;-83
2022/12/06 07:05:51;;;;;;;5.73;4.37;;;;;;;;;;5043682;28;20264;-83
2022/12/06 07:08:18;;;;;;;5.35;4.80;;;;;;;;;;5086186;28;20427;-82
2022/12/06 07:10:47;;;;;;;6.27;4.40;;;;;;;;;;5061184;28;20699;-83
2022/12/06 07:13:14;;;;;;;5.50;4.10;;;;;;;;;;5069905;28;20320;-83
2022/12/06 07:15:41;;;;;;;5.80;4.73;;;;;;;;;;5085026;28;20181;-83
2022/12/06 07:18:07;;;;;;;4.60;4.10;;;;;;;;;;5070907;28;20279;-82
2022/12/06 07:20:33;;;;;;;6.20;4.27;;;;;;;;;;5092245;28;20176;-78
2022/12/06 07:22:59;;;;;;;5.23;4.37;;;;;;;;;;5079672;28;20766;-78
2022/12/06 07:25:26;;;;;;;4.97;4.40;;;;;;;;;;5087240;28;20196;-80
2022/12/06 07:27:52;;;;;;;6.70;4.00;;;;;;;;;;5082919;28;20632;-79
2022/12/06 07:30:18;;;;;;;6.70;4.67;;;;;;;;;;5087545;28;20216;-79
2022/12/06 07:32:45;;;;;;;7.60;4.33;;;;;;;;;;5084684;28;20178;-79
2022/12/06 07:35:11;;;;;;;7.57;4.50;;;;;;;;;;5094127;28;20180;-79
2022/12/06 07:37:37;;;;;;;5.87;4.17;;;;;;;;;;5091238;28;20197;-79
2022/12/06 07:40:03;;;;;;;5.07;4.33;;;;;;;;;;5096275;28;20301;-79
2022/12/06 07:45:15;;;;;;;5.73;5.00;;;;;;;;;;5086210;28;20184;-79
2022/12/06 07:47:42;;;;;;;6.27;4.73;;;;;;;;;;5084926;28;20181;-79
2022/12/06 07:50:10;;;;;;;4.93;4.10;;;;;;;;;;5088456;28;20231;-79
2022/12/06 07:52:36;;;;;;;5.87;4.90;;;;;;;;;;5080166;28;20662;-78
2022/12/06 07:55:03;;;;;;;5.70;4.90;;;;;;;;;;5096332;28;20172;-78
2022/12/06 07:57:30;;;;;;;5.37;4.60;;;;;;;;;;5074991;28;20248;-78
2022/12/06 07:59:56;;;;;;;5.67;4.67;;;;;;;;;;5080235;28;20263;-78
2022/12/06 08:02:24;;;;;;;6.67;5.07;;;;;;;;;;5084923;28;20184;-78
2022/12/06 08:04:51;;;;;;;6.67;4.60;;;;;;;;;;5070380;28;20272;-78
2022/12/06 08:07:17;;;;;;;8.37;4.63;;;;;;;;;;5072626;28;20176;-79
2022/12/06 08:09:43;;;;;;;6.13;4.80;;;;;;;;;;5098297;28;20693;-79
2022/12/06 08:12:10;;;;;;;6.23;4.87;;;;;;;;;;5076320;28;20176;-79
2022/12/06 08:14:36;;;;;;;7.30;5.10;;;;;;;;;;5084829;28;20185;-79
2022/12/06 08:17:04;;;;;;;6.83;4.87;;;;;;;;;;5081925;28;20796;-79
2022/12/06 08:19:30;;;;;;;7.17;5.33;;;;;;;;;;5084935;28;20656;-79
2022/12/06 08:21:56;;;;;;;8.53;6.10;;;;;;;;;;5076737;28;20212;-79
2022/12/06 08:24:22;;;;;;;6.67;5.43;;;;;;;;;;5080225;28;20187;-78
2022/12/06 08:26:51;;;;;;;6.97;6.10;;;;;;;;;;5068900;28;20212;-79
2022/12/06 08:29:17;;;;;;;8.37;5.90;;;;;;;;;;5062025;28;20292;-78
2022/12/06 08:31:44;;;;;;;7.37;6.07;;;;;;;;;;5052019;28;20242;-79
2022/12/06 08:34:10;;;;;;;7.53;4.80;;;;;;;;;;5073820;28;20192;-78
2022/12/06 08:36:37;;;;;;;5.43;4.67;;;;;;;;;;5077945;28;20197;-79
2022/12/06 08:39:04;;;;;;;5.63;4.67;;;;;;;;;;5089126;28;20254;-79
2022/12/06 08:44:15;;;;;;;6.10;4.77;;;;;;;;;;5080518;28;20192;-79
2022/12/06 08:46:48;;;;;;;5.30;4.73;;;;;;;;;;5083082;27;21042;-83
2022/12/06 08:49:15;;;;;;;7.03;5.30;;;;;;;;;;5089971;28;20184;-84
2022/12/06 08:51:42;;;;;;;5.70;4.70;;;;;;;;;;5049068;28;20237;-83
2022/12/06 08:54:09;;;;;;;6.57;5.13;;;;;;;;;;5084492;28;20204;-84
2022/12/06 08:56:36;;;;;;;7.73;6.13;;;;;;;;;;5079232;28;20559;-86
2022/12/06 08:59:02;;;;;;;7.00;5.47;;;;;;;;;;5076136;28;20657;-85
2022/12/06 09:01:29;;;;;;;6.77;5.27;;;;;;;;;;5042646;28;20177;-80
2022/12/06 09:03:57;;;;;;;8.60;5.70;;;;;;;;;;5062470;28;20235;-81
2022/12/06 09:06:24;;;;;;;6.57;5.03;;;;;;;;;;5055256;28;20201;-80
2022/12/06 09:08:50;;;;;;;6.23;5.17;;;;;;;;;;5108488;27;20189;-81
2022/12/06 09:11:17;;;;;;;5.70;4.80;;;;;;;;;;5071045;28;20173;-81
2022/12/06 09:13:43;;;;;;;5.50;4.83;;;;;;;;;;5064788;28;20287;-81
2022/12/06 09:16:14;;;;;;;6.07;4.27;;;;;;;;;;5057927;28;20596;-81
2022/12/06 09:18:41;;;;;;;7.10;5.10;;;;;;;;;;5075271;28;20613;-81
2022/12/06 09:21:08;;;;;;;6.63;5.23;;;;;;;;;;5076288;28;20222;-81
2022/12/06 09:23:35;;;;;;;5.63;4.90;;;;;;;;;;5062618;28;20212;-80
2022/12/06 09:26:01;;;;;;;6.00;5.10;;;;;;;;;;5060203;28;20215;-81
2022/12/06 09:28:28;;;;;;;5.70;4.90;;;;;;;;;;5075501;28;20237;-81
2022/12/06 09:30:54;;;;;;;5.83;5.00;;;;;;;;;;5073426;28;20417;-81
2022/12/06 09:33:21;;;;;;;5.70;4.70;;;;;;;;;;5072259;28;20209;-81
2022/12/06 09:35:47;;;;;;;4.97;4.40;;;;;;;;;;5089292;28;20200;-81
2022/12/06 09:38:14;;;;;;;5.33;4.23;;;;;;;;;;5075708;28;20189;-80
2022/12/06 09:40:40;;;;;;;4.83;4.13;;;;;;;;;;5097698;28;20597;-80
2022/12/06 09:43:15;;;;;;;5.33;4.37;;;;;;;;;;5063077;28;20438;-80
2022/12/06 09:45:54;;;;;;;5.60;4.27;;;;;;;;;;5080287;28;20215;-81
2022/12/06 09:48:36;;;;;;;5.27;4.60;;;;;;;;;;5051116;28;20211;-81
2022/12/06 09:51:24;;;;;;;5.47;4.53;;;;;;;;;;5076952;28;21418;-81
2022/12/06 09:54:08;;;;;;;4.97;4.27;;;;;;;;;;5076218;28;20646;-81
2022/12/06 09:56:37;;;;;;;5.60;4.53;;;;;;;;;;5055739;28;20693;-81
2022/12/06 09:59:11;;;;;;;6.73;4.83;;;;;;;;;;5034047;28;20221;-80
2022/12/06 10:01:56;;;;;;;4.90;4.23;;;;;;;;;;5067274;28;20207;-80
2022/12/06 10:04:36;;;;;;;16.07;6.13;;;;;;;;;;5055245;28;20220;-80
2022/12/06 10:07:12;;;;;;;5.67;5.07;;;;;;;;;;5047969;28;20189;-81
2022/12/06 10:09:45;;;;;;;5.63;4.80;;;;;;;;;;5038710;28;20191;-81
2022/12/06 10:12:11;;;;;;;6.27;4.60;;;;;;;;;;5051994;28;20200;-80
2022/12/06 10:14:37;;;;;;;5.27;4.57;;;;;;;;;;5042188;28;20311;-80
2022/12/06 10:17:30;;;;;;;5.20;4.70;;;;;;;;;;5057308;28;20195;-83
2022/12/06 10:20:19;;;;;;;5.50;4.97;;;;;;;;;;5027113;28;20350;-80
2022/12/06 10:23:04;;;;;;;5.00;4.50;;;;;;;;;;5046394;28;20641;-80
2022/12/06 10:25:40;;;;;;;5.43;4.60;;;;;;;;;;5053723;28;20235;-80
2022/12/06 10:28:13;;;;;;;5.20;4.70;;;;;;;;;;5045124;28;20185;-78
2022/12/06 10:30:52;;;;;;;5.63;4.83;;;;;;;;;;5063779;28;20188;-78
2022/12/06 10:33:31;;;;;;;4.93;4.10;;;;;;;;;;5054176;28;20201;-79
2022/12/06 10:36:01;;;;;;;5.27;4.53;;;;;;;;;;5064411;28;20549;-79
2022/12/06 10:38:27;;;;;;;4.93;4.43;;;;;;;;;;5068292;28;20193;-79
2022/12/06 10:41:12;;;;;;;5.43;4.33;;;;;;;;;;5062057;28;20199;-79
2022/12/06 10:43:42;;;;;;;4.97;4.47;;;;;;;;;;5041623;28;20277;-82
2022/12/06 10:49:17;;;;;;;5.20;4.60;;;;;;;;;;5058380;28;20717;-79
2022/12/06 10:52:13;;;;;;;5.20;4.70;;;;;;;;;;5065365;28;20676;-79
2022/12/06 10:54:53;;;;;;;5.53;4.63;;;;;;;;;;4988155;28;20225;-79
2022/12/06 10:57:28;;;;;;;5.40;4.80;;;;;;;;;;5026977;28;21802;-79
2022/12/06 11:00:00;;;;;;;5.57;4.83;;;;;;;;;;5064342;28;20189;-79
2022/12/06 11:02:41;;;;;;;4.67;4.17;;;;;;;;;;5059158;28;20212;-79
2022/12/06 11:05:27;;;;;;;4.83;4.20;;;;;;;;;;5091316;27;20196;-79
2022/12/06 11:07:58;;;;;;;6.73;4.50;;;;;;;;;;5072151;28;20572;-79
2022/12/06 11:10:26;;;;;;;4.63;4.23;;;;;;;;;;5058502;28;20200;-79
2022/12/06 11:13:03;;;;;;;5.80;4.77;;;;;;;;;;5047489;28;20228;-79
2022/12/06 11:15:32;;;;;;;5.73;5.00;;;;;;;;;;5065518;28;20191;-80
2022/12/06 11:18:03;;;;;;;5.53;4.43;;;;;;;;;;5055472;28;20414;-83
2022/12/06 11:20:33;;;;;;;6.57;4.90;;;;;;;;;;5059868;28;20288;-81
2022/12/06 11:23:18;;;;;;;6.27;5.13;;;;;;;;;;5060669;28;20232;-84
2022/12/06 11:25:57;;;;;;;5.13;4.33;;;;;;;;;;5051899;28;20224;-83
2022/12/06 11:28:32;;;;;;;4.70;4.30;;;;;;;;;;5061505;28;20546;-86
2022/12/06 11:30:59;;;;;;;5.00;4.40;;;;;;;;;;5039712;28;20189;-87
2022/12/06 11:33:29;;;;;;;4.80;4.30;;;;;;;;;;5014421;28;20668;-81
2022/12/06 11:35:55;;;;;;;4.93;4.27;;;;;;;;;;5055689;28;20268;-80
2022/12/06 11:38:21;;;;;;;5.23;4.40;;;;;;;;;;5042657;28;20181;-87
2022/12/06 11:40:50;;;;;;;5.23;4.73;;;;;;;;;;5062144;28;20645;-80
2022/12/06 11:43:23;;;;;;;5.47;4.90;;;;;;;;;;5038175;28;20201;-81
2022/12/06 11:45:49;;;;;;;5.63;4.83;;;;;;;;;;5045448;28;20212;-87
2022/12/06 11:48:27;;;;;;;5.47;4.53;;;;;;;;;;5026978;28;20185;-79
2022/12/06 11:50:53;;;;;;;5.83;4.60;;;;;;;;;;5035813;28;20181;-79
2022/12/06 11:53:38;;;;;;;7.27;5.20;;;;;;;;;;5058948;28;20204;-80
2022/12/06 11:56:23;;;;;;;7.10;5.10;;;;;;;;;;5065453;28;21658;-80
2022/12/06 11:58:55;;;;;;;7.23;5.23;;;;;;;;;;5046758;28;20351;-80
2022/12/06 12:01:35;;;;;;;7.27;5.37;;;;;;;;;;5062789;28;20583;-80
2022/12/06 12:04:21;;;;;;;7.87;4.90;;;;;;;;;;5024682;28;20211;-80
2022/12/06 12:06:49;;;;;;;5.33;4.37;;;;;;;;;;5059760;28;20220;-80
2022/12/06 12:09:19;;;;;;;5.70;4.90;;;;;;;;;;5048800;28;20185;-80
2022/12/06 12:11:52;;;;;;;4.70;3.80;;;;;;;;;;5034371;28;20239;-80
2022/12/06 12:14:27;;;;;;;5.53;4.60;;;;;;;;;;5038350;28;20693;-80
2022/12/06 12:16:57;;;;;;;5.33;4.77;;;;;;;;;;5028245;28;20200;-80
2022/12/06 12:19:27;;;;;;;5.47;4.63;;;;;;;;;;5052859;28;20256;-79
2022/12/06 12:21:54;;;;;;;4.90;4.37;;;;;;;;;;5056116;28;20204;-79
2022/12/06 12:24:39;;;;;;;5.53;4.57;;;;;;;;;;5061635;28;20243;-79
2022/12/06 12:27:24;;;;;;;4.63;4.23;;;;;;;;;;5052254;28;20201;-79
2022/12/06 12:30:11;;;;;;;5.90;4.60;;;;;;;;;;5056774;28;20666;-79
2022/12/06 12:32:37;;;;;;;4.97;4.40;;;;;;;;;;5036772;28;20283;-79
2022/12/06 12:35:26;;;;;;;5.00;4.50;;;;;;;;;;5079337;28;20273;-79
2022/12/06 12:38:00;;;;;;;4.83;4.33;;;;;;;;;;5033794;28;20777;-79
2022/12/06 12:40:33;;;;;;;4.70;4.30;;;;;;;;;;5056587;28;20874;-79
2022/12/06 12:43:03;;;;;;;5.33;4.67;;;;;;;;;;5055366;28;20250;-79
2022/12/06 12:45:29;;;;;;;5.07;4.47;;;;;;;;;;5054186;28;20236;-78
2022/12/06 12:47:57;;;;;;;5.60;4.70;;;;;;;;;;5048421;28;20181;-78
2022/12/06 12:50:24;;;;;;;5.70;4.80;;;;;;;;;;5050739;28;21050;-78
2022/12/06 12:52:51;;;;;;;4.37;3.90;;;;;;;;;;5046362;28;20297;-78
2022/12/06 12:55:43;;;;;;;5.77;5.07;;;;;;;;;;5054976;28;20341;-78
2022/12/06 12:58:11;;;;;;;6.23;5.40;;;;;;;;;;5056595;28;20197;-78
2022/12/06 13:00:41;;;;;;;5.50;4.67;;;;;;;;;;5029041;28;20569;-78
2022/12/06 13:03:16;;;;;;;6.87;5.00;;;;;;;;;;5034203;28;20610;-78
2022/12/06 13:05:43;;;;;;;5.20;4.70;;;;;;;;;;5055476;28;20355;-78
2022/12/06 13:08:33;;;;;;;6.27;4.70;;;;;;;;;;5060509;28;20192;-78
2022/12/06 13:11:01;;;;;;;5.27;4.27;;;;;;;;;;5046457;28;20272;-78
2022/12/06 13:13:34;;;;;;;6.63;5.40;;;;;;;;;;5054838;28;20282;-78
2022/12/06 13:16:02;;;;;;;5.27;4.57;;;;;;;;;;5052110;28;20687;-78
2022/12/06 13:18:31;;;;;;;4.83;4.33;;;;;;;;;;5048311;28;20583;-78
2022/12/06 13:20:58;;;;;;;4.67;4.17;;;;;;;;;;5049127;28;20200;-78
2022/12/06 13:23:27;;;;;;;4.20;3.80;;;;;;;;;;5053246;28;20213;-78
2022/12/06 13:26:00;;;;;;;4.27;3.87;;;;;;;;;;5068122;28;20798;-78
2022/12/06 13:28:28;;;;;;;5.07;4.23;;;;;;;;;;5060087;28;20178;-78
2022/12/06 13:30:59;;;;;;;5.10;4.50;;;;;;;;;;5049566;28;20204;-78
2022/12/06 13:33:26;;;;;;;6.20;5.60;;;;;;;;;;5051189;28;20296;-78
2022/12/06 13:36:00;;;;;;;7.80;6.87;;;;;;;;;;5061071;28;20195;-78
2022/12/06 13:38:31;;;;;;;6.70;5.30;;;;;;;;;;5057079;28;20190;-78
2022/12/06 13:40:59;;;;;;;5.67;5.00;;;;;;;;;;5057248;28;20649;-78
2022/12/06 13:43:25;;;;;;;5.93;4.40;;;;;;;;;;5060423;28;20211;-78
2022/12/06 13:45:55;;;;;;;7.10;5.63;;;;;;;;;;5057173;28;20274;-78
2022/12/06 13:48:24;;;;;;;7.27;6.20;;;;;;;;;;5042765;28;20200;-78
2022/12/06 13:50:50;;;;;;;5.40;4.90;;;;;;;;;;5059850;28;20686;-78
2022/12/06 13:53:17;;;;;;;5.33;4.63;;;;;;;;;;5051577;28;20239;-78
2022/12/06 13:55:50;;;;;;;6.27;5.60;;;;;;;;;;5058280;28;20195;-89
2022/12/06 13:58:16;;;;;;;5.57;5.00;;;;;;;;;;5074872;28;20192;-78
2022/12/06 14:00:42;;;;;;;7.37;6.57;;;;;;;;;;5040304;28;20216;-78
2022/12/06 14:03:17;;;;;;;7.20;6.03;;;;;;;;;;5054511;28;20208;-79
2022/12/06 14:06:03;;;;;;;7.97;6.70;;;;;;;;;;5060139;28;20212;-79
2022/12/06 14:08:32;;;;;;;6.10;4.27;;;;;;;;;;5058190;28;20253;-80
2022/12/06 14:11:05;;;;;;;6.03;5.30;;;;;;;;;;5028688;28;20730;-80
2022/12/06 14:13:31;;;;;;;6.20;5.60;;;;;;;;;;5043684;28;20210;-79
2022/12/06 14:15:58;;;;;;;5.57;4.67;;;;;;;;;;5065359;28;20208;-79
2022/12/06 14:18:25;;;;;;;5.43;4.90;;;;;;;;;;5077218;28;20185;-80
2022/12/06 14:20:53;;;;;;;5.10;4.60;;;;;;;;;;5030265;28;20532;-80
2022/12/06 14:23:30;;;;;;;5.13;3.93;;;;;;;;;;5063110;28;21733;-79
2022/12/06 14:26:15;;;;;;;5.50;4.40;;;;;;;;;;5065667;28;20224;-79
2022/12/06 14:28:42;;;;;;;4.70;4.20;;;;;;;;;;5075328;28;20890;-80
2022/12/06 14:31:20;;;;;;;4.63;4.13;;;;;;;;;;5064081;28;20192;-79
2022/12/06 14:33:47;;;;;;;5.47;4.37;;;;;;;;;;5067889;28;20201;-79
2022/12/06 14:36:16;;;;;;;4.40;4.00;;;;;;;;;;5063154;28;20544;-79
2022/12/06 14:38:49;;;;;;;7.13;4.50;;;;;;;;;;5062598;28;20182;-79
2022/12/06 14:44:14;;;;;;;5.33;4.80;;;;;;;;;;5044324;28;20204;-79
2022/12/06 14:46:42;;;;;;;5.07;4.40;;;;;;;;;;5067541;28;20222;-79
2022/12/06 14:51:56;;;;;;;4.67;4.10;;;;;;;;;;5058660;28;20197;-85
2022/12/06 14:54:34;;;;;;;6.27;4.13;;;;;;;;;;5023120;28;20224;-80
2022/12/06 14:57:01;;;;;;;5.80;4.07;;;;;;;;;;5090701;27;20800;-84
2022/12/06 14:59:28;;;;;;;4.27;3.87;;;;;;;;;;5065214;28;20426;-79
2022/12/06 15:01:55;;;;;;;5.37;4.17;;;;;;;;;;5079994;28;20192;-80
2022/12/06 15:04:34;;;;;;;6.20;4.00;;;;;;;;;;5060641;28;20201;-79
2022/12/06 15:07:00;;;;;;;4.47;4.07;;;;;;;;;;5049536;28;20188;-80
2022/12/06 15:09:28;;;;;;;5.67;3.87;;;;;;;;;;5030223;28;20637;-80
2022/12/06 15:15:01;;;;;;;4.60;3.83;;;;;;;;;;5068694;28;20642;-80
2022/12/06 15:17:28;;;;;;;4.80;4.30;;;;;;;;;;5063280;28;20200;-79
2022/12/06 15:19:54;;;;;;;3.80;3.50;;;;;;;;;;5066462;28;20538;-81
2022/12/06 15:22:21;;;;;;;4.57;3.83;;;;;;;;;;5049212;28;20200;-79
2022/12/06 15:24:54;;;;;;;4.23;3.80;;;;;;;;;;5048102;28;20300;-79
2022/12/06 15:27:22;;;;;;;4.77;3.57;;;;;;;;;;5062027;28;20181;-80
2022/12/06 15:29:48;;;;;;;4.97;4.37;;;;;;;;;;5067316;28;20339;-80
2022/12/06 15:32:15;;;;;;;5.13;4.33;;;;;;;;;;5042174;28;20566;-80